Sam Ratulangi Airport
WAMM : now visible

Airfield :











YOU CAN JOIN US ON...

 
LOGIN :

Register | Disclaimer

   EN    FR    IT 

 









Legend :    VFR   Marginal VFR   IFR   Intensive IFR   Very Intensive IFR
Visi :
Ceiling :
>= 8 km
>= 3000ft
5 to 8 km
1000 to 3000 ft
1500m to 5 km
500 to 1000 ft
800 to 1500m
200 to 500 ft
< 800m
< 200 ft
Symbols :   Thunderstorms  Fog  Heavy snow  Heavy precipitations  Wind > 20 kt






- Airport Elevation : 264 ft
- IATA code : MDC


WAMM - Sam Ratulangi

CURRENT METAR :
  • 300000Z VRB02KT 9999 FEW021 29/25 Q1012 NOSIG

EXPIRED METARs :
  • 292330Z VRB02KT 9999 FEW020 28/25 Q1012 NOSIG
  • 292300Z VRB02KT 9999 FEW020 28/25 Q1011 NOSIG METAR
  • 292230Z VRB01KT 9999 FEW020 26/25 Q1011 NOSIG
  • 292200Z 14005KT 9999 FEW020 26/25 Q1010 NOSIG
  • 292130Z VRB02KT 9000 SCT019 25/25 Q1010 RERA NOSIG
  • 292100Z VRB02KT 8000 -RA SCT019 25/24 Q1010 NOSIG
  • 292030Z VRB02KT 4000 RA FEW018CB SCT019 25/25 Q1010 RETS TEMPO TL2100 5000 RA NSC RMK CB IN APCH METAR
  • 292000Z VRB01KT 5000 -TSRA FEW018CB SCT019 25/24 Q1010 TEMPO TL2100 5000 TSRA NSC RMK CB IN APCH METAR WALL NIL
  • 291930Z VRB01KT 8000 -TSRA FEW018CB SCT019 25/25 Q1010 TEMPO TL2100 5000 TSRA RMK CB IN APCH

TAF TAF WAMM
Valid from the 30 at 00:00 until the 31 at 06:00 UTC


292300Z 3000/3106 15010KT 9999 FEW020
BECMG 3010/3012 VRB02KT
WAAF FIR / Asia



MET'MAP, your aeronautical weather chart ! - Copyright ORBIFLY December 2007 - Disclaimer

ORBIFLY MET'MAP TEAM :

Programming & Development : Alexandra Zaïnal
Original concept : Baudouin d'Aumeries
Technical & hardware support : Manuel Goepfert
Assistance : Marc-Olivier Méhu




SOURCES & CREDITS :

   NOAA       Earth
Advisory